sensor_id;sensor_type;location;lat;lon;timestamp;pressure;altitude;pressure_sealevel;temperature;humidity
43741;BME280;29352;48.708;9.290;2023-08-20T00:00:39;98164.25;;;14.59;88.69
43741;BME280;29352;48.708;9.290;2023-08-20T00:03:12;98169.41;;;14.49;89.25
43741;BME280;29352;48.708;9.290;2023-08-20T00:05:39;98168.47;;;14.32;89.96
43741;BME280;29352;48.708;9.290;2023-08-20T00:08:05;98164.59;;;14.63;88.89
43741;BME280;29352;48.708;9.290;2023-08-20T00:10:31;98170.09;;;14.44;89.71
43741;BME280;29352;48.708;9.290;2023-08-20T00:12:57;98168.66;;;14.30;89.70
43741;BME280;29352;48.708;9.290;2023-08-20T00:15:23;98178.97;;;14.45;90.17
43741;BME280;29352;48.708;9.290;2023-08-20T00:17:52;98175.59;;;14.50;89.99
43741;BME280;29352;48.708;9.290;2023-08-20T00:20:19;98182.91;;;14.31;90.56
43741;BME280;29352;48.708;9.290;2023-08-20T00:22:46;98182.47;;;14.22;89.83
43741;BME280;29352;48.708;9.290;2023-08-20T00:25:15;98184.28;;;13.86;90.54
43741;BME280;29352;48.708;9.290;2023-08-20T00:27:43;98176.00;;;14.00;92.24
43741;BME280;29352;48.708;9.290;2023-08-20T00:30:10;98181.06;;;14.08;90.98
43741;BME280;29352;48.708;9.290;2023-08-20T00:32:36;98187.81;;;13.99;90.85
43741;BME280;29352;48.708;9.290;2023-08-20T00:35:03;98185.97;;;14.23;90.21
43741;BME280;29352;48.708;9.290;2023-08-20T00:37:30;98174.84;;;14.07;91.48
43741;BME280;29352;48.708;9.290;2023-08-20T00:39:56;98178.63;;;14.41;89.71
43741;BME280;29352;48.708;9.290;2023-08-20T00:42:22;98178.84;;;14.40;89.53
43741;BME280;29352;48.708;9.290;2023-08-20T00:44:50;98179.44;;;14.42;90.01
43741;BME280;29352;48.708;9.290;2023-08-20T00:47:18;98181.97;;;14.37;89.96
43741;BME280;29352;48.708;9.290;2023-08-20T00:49:46;98175.31;;;14.28;89.33
43741;BME280;29352;48.708;9.290;2023-08-20T00:52:14;98189.56;;;14.05;90.70
43741;BME280;29352;48.708;9.290;2023-08-20T00:54:45;98187.25;;;14.08;91.31
43741;BME280;29352;48.708;9.290;2023-08-20T00:57:13;98191.09;;;14.12;91.01
43741;BME280;29352;48.708;9.290;2023-08-20T00:59:43;98189.81;;;14.15;89.73
43741;BME280;29352;48.708;9.290;2023-08-20T01:02:10;98188.63;;;13.57;90.64
43741;BME280;29352;48.708;9.290;2023-08-20T01:04:36;98190.00;;;13.48;92.26
43741;BME280;29352;48.708;9.290;2023-08-20T01:07:22;98186.50;;;13.89;91.36
43741;BME280;29352;48.708;9.290;2023-08-20T01:12:56;98182.91;;;13.84;91.43
43741;BME280;29352;48.708;9.290;2023-08-20T01:15:23;98185.34;;;13.55;92.97
43741;BME280;29352;48.708;9.290;2023-08-20T01:17:49;98185.53;;;13.72;91.37
43741;BME280;29352;48.708;9.290;2023-08-20T01:20:15;98187.66;;;13.52;92.13
43741;BME280;29352;48.708;9.290;2023-08-20T01:22:59;98195.31;;;13.66;91.23
43741;BME280;29352;48.708;9.290;2023-08-20T01:28:32;98197.09;;;13.72;91.00
43741;BME280;29352;48.708;9.290;2023-08-20T01:31:00;98195.69;;;13.40;91.46
43741;BME280;29352;48.708;9.290;2023-08-20T01:33:26;98196.22;;;13.60;91.38
43741;BME280;29352;48.708;9.290;2023-08-20T01:35:54;98197.56;;;13.69;90.57
43741;BME280;29352;48.708;9.290;2023-08-20T01:38:21;98195.69;;;13.40;93.20
43741;BME280;29352;48.708;9.290;2023-08-20T01:40:47;98195.91;;;13.68;91.80
43741;BME280;29352;48.708;9.290;2023-08-20T01:43:13;98199.44;;;13.20;94.98
43741;BME280;29352;48.708;9.290;2023-08-20T01:45:39;98196.31;;;13.54;92.29
43741;BME280;29352;48.708;9.290;2023-08-20T01:48:04;98204.72;;;13.57;91.07
43741;BME280;29352;48.708;9.290;2023-08-20T01:50:30;98202.69;;;13.71;90.65
43741;BME280;29352;48.708;9.290;2023-08-20T01:52:56;98194.28;;;13.67;91.04
43741;BME280;29352;48.708;9.290;2023-08-20T01:55:21;98202.03;;;13.87;90.06
43741;BME280;29352;48.708;9.290;2023-08-20T01:57:47;98199.53;;;13.74;88.91
43741;BME280;29352;48.708;9.290;2023-08-20T02:00:13;98195.09;;;13.68;90.65
43741;BME280;29352;48.708;9.290;2023-08-20T02:02:38;98198.13;;;13.41;92.58
43741;BME280;29352;48.708;9.290;2023-08-20T02:05:04;98197.31;;;13.71;91.15
43741;BME280;29352;48.708;9.290;2023-08-20T02:07:29;98200.16;;;13.58;90.87
43741;BME280;29352;48.708;9.290;2023-08-20T02:09:55;98202.38;;;13.49;90.33
43741;BME280;29352;48.708;9.290;2023-08-20T02:12:20;98198.19;;;13.53;90.55
43741;BME280;29352;48.708;9.290;2023-08-20T02:14:46;98201.41;;;13.43;91.53
43741;BME280;29352;48.708;9.290;2023-08-20T02:17:11;98201.59;;;13.60;91.43
43741;BME280;29352;48.708;9.290;2023-08-20T02:19:37;98205.06;;;13.61;91.64
43741;BME280;29352;48.708;9.290;2023-08-20T02:22:03;98196.28;;;13.42;92.20
43741;BME280;29352;48.708;9.290;2023-08-20T02:24:29;98205.00;;;13.67;91.28
43741;BME280;29352;48.708;9.290;2023-08-20T02:26:55;98204.25;;;13.48;92.26
43741;BME280;29352;48.708;9.290;2023-08-20T02:29:20;98205.84;;;13.19;92.77
43741;BME280;29352;48.708;9.290;2023-08-20T02:31:45;98211.31;;;12.94;93.69
43741;BME280;29352;48.708;9.290;2023-08-20T02:34:11;98207.00;;;13.12;92.04
43741;BME280;29352;48.708;9.290;2023-08-20T02:36:36;98209.44;;;12.76;93.15
43741;BME280;29352;48.708;9.290;2023-08-20T02:39:02;98212.41;;;12.68;96.06
43741;BME280;29352;48.708;9.290;2023-08-20T02:41:29;98211.50;;;12.74;94.67
43741;BME280;29352;48.708;9.290;2023-08-20T02:43:55;98208.09;;;12.86;93.91
43741;BME280;29352;48.708;9.290;2023-08-20T02:46:20;98213.56;;;12.97;93.75
43741;BME280;29352;48.708;9.290;2023-08-20T02:48:45;98209.31;;;12.90;93.82
43741;BME280;29352;48.708;9.290;2023-08-20T02:51:11;98208.97;;;12.61;93.50
43741;BME280;29352;48.708;9.290;2023-08-20T02:53:36;98216.50;;;12.71;93.83
43741;BME280;29352;48.708;9.290;2023-08-20T02:56:02;98213.00;;;12.89;92.91
43741;BME280;29352;48.708;9.290;2023-08-20T02:58:28;98212.09;;;12.58;94.26
43741;BME280;29352;48.708;9.290;2023-08-20T03:00:54;98209.72;;;12.68;93.87
43741;BME280;29352;48.708;9.290;2023-08-20T03:03:19;98212.56;;;12.55;94.65
43741;BME280;29352;48.708;9.290;2023-08-20T03:05:45;98203.34;;;12.69;95.24
43741;BME280;29352;48.708;9.290;2023-08-20T03:08:10;98204.16;;;12.70;95.01
43741;BME280;29352;48.708;9.290;2023-08-20T03:10:35;98201.53;;;12.82;94.63
43741;BME280;29352;48.708;9.290;2023-08-20T03:13:02;98209.00;;;12.79;94.20
43741;BME280;29352;48.708;9.290;2023-08-20T03:15:28;98194.25;;;12.70;95.74
43741;BME280;29352;48.708;9.290;2023-08-20T03:17:54;98200.63;;;12.51;96.26
43741;BME280;29352;48.708;9.290;2023-08-20T03:20:20;98191.28;;;12.42;96.18
43741;BME280;29352;48.708;9.290;2023-08-20T03:22:45;98192.34;;;12.59;95.36
43741;BME280;29352;48.708;9.290;2023-08-20T03:25:11;98193.16;;;12.60;95.39
43741;BME280;29352;48.708;9.290;2023-08-20T03:27:36;98199.81;;;12.32;93.85
43741;BME280;29352;48.708;9.290;2023-08-20T03:30:03;98200.47;;;12.27;95.11
43741;BME280;29352;48.708;9.290;2023-08-20T03:32:29;98199.50;;;12.40;95.02
43741;BME280;29352;48.708;9.290;2023-08-20T03:34:55;98190.97;;;12.68;95.51
43741;BME280;29352;48.708;9.290;2023-08-20T03:37:21;98194.09;;;12.65;94.50
43741;BME280;29352;48.708;9.290;2023-08-20T03:39:47;98198.56;;;12.53;94.52
43741;BME280;29352;48.708;9.290;2023-08-20T03:42:13;98206.59;;;12.35;94.98
43741;BME280;29352;48.708;9.290;2023-08-20T03:44:39;98207.91;;;12.44;96.44
43741;BME280;29352;48.708;9.290;2023-08-20T03:47:04;98203.75;;;12.48;96.40
43741;BME280;29352;48.708;9.290;2023-08-20T03:49:30;98214.13;;;12.19;98.17
43741;BME280;29352;48.708;9.290;2023-08-20T03:51:55;98211.63;;;12.24;97.48
43741;BME280;29352;48.708;9.290;2023-08-20T03:54:20;98216.06;;;12.30;94.56
43741;BME280;29352;48.708;9.290;2023-08-20T03:56:46;98206.78;;;12.08;94.81
43741;BME280;29352;48.708;9.290;2023-08-20T03:59:11;98208.28;;;12.04;94.15
43741;BME280;29352;48.708;9.290;2023-08-20T04:01:37;98208.22;;;12.11;99.84
43741;BME280;29352;48.708;9.290;2023-08-20T04:04:05;98200.25;;;12.47;96.78
43741;BME280;29352;48.708;9.290;2023-08-20T04:06:31;98195.91;;;12.53;96.12
43741;BME280;29352;48.708;9.290;2023-08-20T04:08:57;98185.75;;;12.92;94.40
43741;BME280;29352;48.708;9.290;2023-08-20T04:11:22;98192.78;;;12.56;97.87
43741;BME280;29352;48.708;9.290;2023-08-20T04:13:47;98199.56;;;12.59;98.64
43741;BME280;29352;48.708;9.290;2023-08-20T04:16:13;98203.78;;;12.66;98.71
43741;BME280;29352;48.708;9.290;2023-08-20T04:18:39;98202.53;;;12.87;95.07
43741;BME280;29352;48.708;9.290;2023-08-20T04:21:05;98206.81;;;12.88;96.90
43741;BME280;29352;48.708;9.290;2023-08-20T04:23:32;98212.31;;;12.75;96.60
43741;BME280;29352;48.708;9.290;2023-08-20T04:25:57;98207.88;;;12.87;95.78
43741;BME280;29352;48.708;9.290;2023-08-20T04:28:23;98214.22;;;12.93;95.68
43741;BME280;29352;48.708;9.290;2023-08-20T04:30:52;98218.78;;;12.86;95.26
43741;BME280;29352;48.708;9.290;2023-08-20T04:33:19;98212.56;;;12.73;94.10
43741;BME280;29352;48.708;9.290;2023-08-20T04:35:45;98217.53;;;12.51;93.97
43741;BME280;29352;48.708;9.290;2023-08-20T04:38:11;98213.44;;;12.86;93.07
43741;BME280;29352;48.708;9.290;2023-08-20T04:40:36;98201.94;;;13.04;92.14
43741;BME280;29352;48.708;9.290;2023-08-20T04:43:01;98204.34;;;13.23;92.38
43741;BME280;29352;48.708;9.290;2023-08-20T04:45:27;98205.69;;;13.63;92.97
43741;BME280;29352;48.708;9.290;2023-08-20T04:47:53;98213.47;;;13.64;93.76
43741;BME280;29352;48.708;9.290;2023-08-20T04:50:18;98215.09;;;13.65;91.15
43741;BME280;29352;48.708;9.290;2023-08-20T04:52:43;98213.59;;;14.35;88.78
43741;BME280;29352;48.708;9.290;2023-08-20T04:55:09;98224.00;;;14.19;87.93
43741;BME280;29352;48.708;9.290;2023-08-20T04:57:34;98221.31;;;14.31;87.79
43741;BME280;29352;48.708;9.290;2023-08-20T05:00:00;98222.38;;;14.65;86.77
43741;BME280;29352;48.708;9.290;2023-08-20T05:02:26;98219.66;;;14.89;84.65
43741;BME280;29352;48.708;9.290;2023-08-20T05:04:52;98225.84;;;15.01;84.12
43741;BME280;29352;48.708;9.290;2023-08-20T05:07:17;98221.50;;;15.69;82.99
43741;BME280;29352;48.708;9.290;2023-08-20T05:09:43;98224.81;;;15.31;82.94
43741;BME280;29352;48.708;9.290;2023-08-20T05:12:09;98235.09;;;16.25;79.17
43741;BME280;29352;48.708;9.290;2023-08-20T05:14:34;98243.16;;;16.08;79.40
43741;BME280;29352;48.708;9.290;2023-08-20T05:17:00;98236.59;;;15.70;80.89
43741;BME280;29352;48.708;9.290;2023-08-20T05:19:26;98243.91;;;15.06;83.81
43741;BME280;29352;48.708;9.290;2023-08-20T05:21:52;98243.09;;;15.17;83.17
43741;BME280;29352;48.708;9.290;2023-08-20T05:24:21;98241.53;;;16.24;79.42
43741;BME280;29352;48.708;9.290;2023-08-20T05:26:49;98237.34;;;16.67;77.42
43741;BME280;29352;48.708;9.290;2023-08-20T05:29:28;98226.69;;;18.66;72.02
43741;BME280;29352;48.708;9.290;2023-08-20T05:31:53;98217.91;;;18.91;70.13
43741;BME280;29352;48.708;9.290;2023-08-20T05:34:19;98208.53;;;19.09;70.15
43741;BME280;29352;48.708;9.290;2023-08-20T05:36:44;98204.13;;;20.12;68.16
43741;BME280;29352;48.708;9.290;2023-08-20T05:39:09;98207.56;;;20.69;65.44
43741;BME280;29352;48.708;9.290;2023-08-20T05:41:35;98206.75;;;20.73;66.10
43741;BME280;29352;48.708;9.290;2023-08-20T05:44:00;98202.97;;;20.69;66.54
43741;BME280;29352;48.708;9.290;2023-08-20T05:46:25;98208.66;;;19.50;70.41
43741;BME280;29352;48.708;9.290;2023-08-20T05:48:51;98209.03;;;20.25;69.08
43741;BME280;29352;48.708;9.290;2023-08-20T05:51:16;98225.28;;;20.25;69.10
43741;BME280;29352;48.708;9.290;2023-08-20T05:53:42;98229.03;;;21.30;65.97
43741;BME280;29352;48.708;9.290;2023-08-20T05:56:07;98226.44;;;21.64;65.05
43741;BME280;29352;48.708;9.290;2023-08-20T05:58:33;98229.59;;;20.42;68.09
43741;BME280;29352;48.708;9.290;2023-08-20T06:00:59;98242.28;;;20.77;66.85
43741;BME280;29352;48.708;9.290;2023-08-20T06:03:24;98246.03;;;21.56;65.02
43741;BME280;29352;48.708;9.290;2023-08-20T06:05:50;98249.13;;;21.84;64.36
43741;BME280;29352;48.708;9.290;2023-08-20T06:08:15;98250.00;;;21.19;65.89
43741;BME280;29352;48.708;9.290;2023-08-20T06:10:41;98246.31;;;20.74;66.29
43741;BME280;29352;48.708;9.290;2023-08-20T06:13:06;98245.25;;;20.65;66.79
43741;BME280;29352;48.708;9.290;2023-08-20T06:15:31;98236.66;;;20.22;67.87
43741;BME280;29352;48.708;9.290;2023-08-20T06:17:57;98234.75;;;22.76;62.06
43741;BME280;29352;48.708;9.290;2023-08-20T06:20:22;98239.84;;;20.70;66.36
43741;BME280;29352;48.708;9.290;2023-08-20T06:22:47;98238.84;;;21.76;64.07
43741;BME280;29352;48.708;9.290;2023-08-20T06:25:13;98234.56;;;22.43;62.86
43741;BME280;29352;48.708;9.290;2023-08-20T06:27:38;98243.03;;;21.58;64.18
43741;BME280;29352;48.708;9.290;2023-08-20T06:30:04;98244.75;;;21.83;64.43
43741;BME280;29352;48.708;9.290;2023-08-20T06:32:31;98242.56;;;22.82;62.19
43741;BME280;29352;48.708;9.290;2023-08-20T06:34:56;98239.69;;;22.10;63.71
43741;BME280;29352;48.708;9.290;2023-08-20T06:37:21;98249.13;;;21.84;64.68
43741;BME280;29352;48.708;9.290;2023-08-20T06:39:47;98236.94;;;23.22;61.52
43741;BME280;29352;48.708;9.290;2023-08-20T06:42:12;98234.09;;;24.40;58.48
43741;BME280;29352;48.708;9.290;2023-08-20T06:44:38;98239.78;;;23.11;61.45
43741;BME280;29352;48.708;9.290;2023-08-20T06:47:04;98240.41;;;24.22;59.10
43741;BME280;29352;48.708;9.290;2023-08-20T06:49:29;98240.13;;;24.70;58.44
43741;BME280;29352;48.708;9.290;2023-08-20T06:51:55;98247.59;;;25.33;57.46
43741;BME280;29352;48.708;9.290;2023-08-20T06:54:20;98250.16;;;24.88;58.29
43741;BME280;29352;48.708;9.290;2023-08-20T06:56:46;98246.38;;;24.98;57.62
43741;BME280;29352;48.708;9.290;2023-08-20T06:59:12;98247.78;;;23.27;61.21
43741;BME280;29352;48.708;9.290;2023-08-20T07:01:37;98242.63;;;24.20;60.13
43741;BME280;29352;48.708;9.290;2023-08-20T07:04:03;98243.47;;;25.08;57.96
43741;BME280;29352;48.708;9.290;2023-08-20T07:06:28;98248.81;;;24.99;59.03
43741;BME280;29352;48.708;9.290;2023-08-20T07:08:54;98251.13;;;25.47;57.36
43741;BME280;29352;48.708;9.290;2023-08-20T07:11:19;98242.34;;;24.54;59.50
43741;BME280;29352;48.708;9.290;2023-08-20T07:13:45;98251.44;;;24.91;58.54
43741;BME280;29352;48.708;9.290;2023-08-20T07:16:10;98252.78;;;26.61;55.92
43741;BME280;29352;48.708;9.290;2023-08-20T07:18:36;98249.94;;;27.98;53.42
43741;BME280;29352;48.708;9.290;2023-08-20T07:21:01;98248.25;;;27.36;53.70
43741;BME280;29352;48.708;9.290;2023-08-20T07:23:27;98250.47;;;29.03;51.44
43741;BME280;29352;48.708;9.290;2023-08-20T07:26:07;98252.50;;;26.62;55.68
43741;BME280;29352;48.708;9.290;2023-08-20T07:28:35;98259.38;;;27.40;54.21
43741;BME280;29352;48.708;9.290;2023-08-20T07:31:32;98267.44;;;26.34;55.94
43741;BME280;29352;48.708;9.290;2023-08-20T07:34:01;98266.22;;;26.71;56.10
43741;BME280;29352;48.708;9.290;2023-08-20T07:36:28;98258.88;;;27.37;54.27
43741;BME280;29352;48.708;9.290;2023-08-20T07:38:54;98269.69;;;27.43;53.71
43741;BME280;29352;48.708;9.290;2023-08-20T07:41:21;98267.19;;;26.22;56.73
43741;BME280;29352;48.708;9.290;2023-08-20T07:43:48;98265.84;;;27.61;54.28
43741;BME280;29352;48.708;9.290;2023-08-20T07:46:15;98261.13;;;28.48;53.94
43741;BME280;29352;48.708;9.290;2023-08-20T07:48:41;98266.97;;;28.29;53.36
43741;BME280;29352;48.708;9.290;2023-08-20T07:51:08;98274.13;;;26.73;55.64
43741;BME280;29352;48.708;9.290;2023-08-20T07:53:34;98276.19;;;27.73;54.86
43741;BME280;29352;48.708;9.290;2023-08-20T07:56:00;98273.97;;;26.78;55.65
43741;BME280;29352;48.708;9.290;2023-08-20T07:58:26;98274.59;;;28.15;53.99
43741;BME280;29352;48.708;9.290;2023-08-20T08:00:53;98270.28;;;27.97;53.77
43741;BME280;29352;48.708;9.290;2023-08-20T08:03:19;98284.44;;;27.99;54.22
43741;BME280;29352;48.708;9.290;2023-08-20T08:05:48;98278.50;;;29.26;52.27
43741;BME280;29352;48.708;9.290;2023-08-20T08:08:19;98283.13;;;27.79;54.36
43741;BME280;29352;48.708;9.290;2023-08-20T08:10:45;98288.28;;;27.06;55.86
43741;BME280;29352;48.708;9.290;2023-08-20T08:13:12;98284.84;;;26.38;57.34
43741;BME280;29352;48.708;9.290;2023-08-20T08:15:38;98283.78;;;25.66;57.86
43741;BME280;29352;48.708;9.290;2023-08-20T08:18:03;98283.16;;;24.59;59.84
43741;BME280;29352;48.708;9.290;2023-08-20T08:20:29;98280.91;;;28.07;53.60
43741;BME280;29352;48.708;9.290;2023-08-20T08:22:54;98284.28;;;27.87;53.90
43741;BME280;29352;48.708;9.290;2023-08-20T08:25:20;98286.38;;;28.89;52.57
43741;BME280;29352;48.708;9.290;2023-08-20T08:27:45;98287.97;;;27.73;54.01
43741;BME280;29352;48.708;9.290;2023-08-20T08:30:11;98285.59;;;28.88;52.79
43741;BME280;29352;48.708;9.290;2023-08-20T08:32:37;98287.31;;;30.24;49.99
43741;BME280;29352;48.708;9.290;2023-08-20T08:35:02;98286.81;;;29.08;51.85
43741;BME280;29352;48.708;9.290;2023-08-20T08:37:28;98294.13;;;25.14;58.35
43741;BME280;29352;48.708;9.290;2023-08-20T08:39:53;98287.44;;;24.79;59.40
43741;BME280;29352;48.708;9.290;2023-08-20T08:42:22;98293.78;;;25.71;58.13
43741;BME280;29352;48.708;9.290;2023-08-20T08:44:50;98284.66;;;26.57;56.52
43741;BME280;29352;48.708;9.290;2023-08-20T08:47:21;98288.50;;;26.56;56.65
43741;BME280;29352;48.708;9.290;2023-08-20T08:49:48;98288.09;;;27.02;55.94
43741;BME280;29352;48.708;9.290;2023-08-20T08:52:15;98278.00;;;27.11;56.54
43741;BME280;29352;48.708;9.290;2023-08-20T08:54:41;98285.53;;;27.63;55.88
43741;BME280;29352;48.708;9.290;2023-08-20T08:57:07;98280.28;;;27.18;54.97
43741;BME280;29352;48.708;9.290;2023-08-20T08:59:33;98289.28;;;28.37;54.35
43741;BME280;29352;48.708;9.290;2023-08-20T09:01:58;98285.97;;;28.61;53.78
43741;BME280;29352;48.708;9.290;2023-08-20T09:04:24;98286.47;;;28.54;52.77
43741;BME280;29352;48.708;9.290;2023-08-20T09:06:52;98287.09;;;29.66;50.61
43741;BME280;29352;48.708;9.290;2023-08-20T09:09:21;98287.09;;;27.38;53.20
43741;BME280;29352;48.708;9.290;2023-08-20T09:11:48;98287.19;;;27.99;54.90
43741;BME280;29352;48.708;9.290;2023-08-20T09:14:27;98283.63;;;28.24;53.84
43741;BME280;29352;48.708;9.290;2023-08-20T09:17:03;98288.28;;;27.89;53.50
43741;BME280;29352;48.708;9.290;2023-08-20T09:19:30;98291.63;;;29.11;52.42
43741;BME280;29352;48.708;9.290;2023-08-20T09:22:00;98282.03;;;29.17;51.87
43741;BME280;29352;48.708;9.290;2023-08-20T09:24:32;98294.66;;;28.71;53.05
43741;BME280;29352;48.708;9.290;2023-08-20T09:27:03;98294.78;;;30.23;50.18
43741;BME280;29352;48.708;9.290;2023-08-20T09:29:43;98298.13;;;30.29;50.21
43741;BME280;29352;48.708;9.290;2023-08-20T09:32:23;98292.41;;;30.34;49.46
43741;BME280;29352;48.708;9.290;2023-08-20T09:34:54;98296.47;;;30.15;50.50
43741;BME280;29352;48.708;9.290;2023-08-20T09:37:22;98292.31;;;30.88;49.36
43741;BME280;29352;48.708;9.290;2023-08-20T09:39:49;98290.75;;;30.21;49.19
43741;BME280;29352;48.708;9.290;2023-08-20T09:42:16;98295.09;;;30.22;51.17
43741;BME280;29352;48.708;9.290;2023-08-20T09:44:46;98287.59;;;29.68;50.18
43741;BME280;29352;48.708;9.290;2023-08-20T09:47:13;98290.22;;;30.60;49.77
43741;BME280;29352;48.708;9.290;2023-08-20T09:49:45;98284.34;;;29.66;49.70
43741;BME280;29352;48.708;9.290;2023-08-20T09:52:23;98287.97;;;28.98;52.59
43741;BME280;29352;48.708;9.290;2023-08-20T09:55:13;98283.53;;;28.68;52.24
43741;BME280;29352;48.708;9.290;2023-08-20T09:57:42;98277.59;;;29.63;50.17
43741;BME280;29352;48.708;9.290;2023-08-20T10:00:09;98280.50;;;29.08;51.34
43741;BME280;29352;48.708;9.290;2023-08-20T10:02:36;98276.25;;;29.19;52.05
43741;BME280;29352;48.708;9.290;2023-08-20T10:05:07;98276.03;;;29.33;50.76
43741;BME280;29352;48.708;9.290;2023-08-20T10:07:36;98283.06;;;30.59;49.00
43741;BME280;29352;48.708;9.290;2023-08-20T10:10:04;98276.38;;;30.48;48.53
43741;BME280;29352;48.708;9.290;2023-08-20T10:12:32;98275.63;;;30.27;48.26
43741;BME280;29352;48.708;9.290;2023-08-20T10:15:00;98288.00;;;30.21;48.94
43741;BME280;29352;48.708;9.290;2023-08-20T10:17:30;98266.81;;;31.52;46.67
43741;BME280;29352;48.708;9.290;2023-08-20T10:19:58;98264.06;;;31.28;47.84
43741;BME280;29352;48.708;9.290;2023-08-20T10:22:36;98268.44;;;30.92;49.59
43741;BME280;29352;48.708;9.290;2023-08-20T10:25:10;98267.19;;;31.26;46.84
43741;BME280;29352;48.708;9.290;2023-08-20T10:27:39;98270.81;;;30.24;48.79
43741;BME280;29352;48.708;9.290;2023-08-20T10:30:09;98267.19;;;30.44;47.92
43741;BME280;29352;48.708;9.290;2023-08-20T10:32:50;98263.31;;;31.03;47.17
43741;BME280;29352;48.708;9.290;2023-08-20T10:35:28;98261.16;;;30.63;46.76
43741;BME280;29352;48.708;9.290;2023-08-20T10:38:13;98263.09;;;30.17;47.69
43741;BME280;29352;48.708;9.290;2023-08-20T10:46:20;98261.28;;;31.65;45.31
43741;BME280;29352;48.708;9.290;2023-08-20T10:48:54;98263.78;;;31.70;44.72
43741;BME280;29352;48.708;9.290;2023-08-20T10:51:33;98273.94;;;30.34;46.52
43741;BME280;29352;48.708;9.290;2023-08-20T10:56:38;98270.59;;;30.62;46.44
43741;BME280;29352;48.708;9.290;2023-08-20T10:59:29;98264.53;;;30.93;46.50
43741;BME280;29352;48.708;9.290;2023-08-20T11:01:57;98272.22;;;31.37;45.75
43741;BME280;29352;48.708;9.290;2023-08-20T11:04:28;98263.50;;;31.99;44.73
43741;BME280;29352;48.708;9.290;2023-08-20T11:07:00;98261.66;;;31.39;46.32
43741;BME280;29352;48.708;9.290;2023-08-20T11:09:27;98263.75;;;31.17;45.90
43741;BME280;29352;48.708;9.290;2023-08-20T11:11:55;98254.91;;;31.24;45.65
43741;BME280;29352;48.708;9.290;2023-08-20T11:14:21;98261.66;;;30.77;47.81
43741;BME280;29352;48.708;9.290;2023-08-20T11:16:49;98256.41;;;30.84;46.37
43741;BME280;29352;48.708;9.290;2023-08-20T11:19:18;98253.75;;;31.37;46.06
43741;BME280;29352;48.708;9.290;2023-08-20T11:21:45;98251.59;;;31.06;46.71
43741;BME280;29352;48.708;9.290;2023-08-20T11:24:12;98242.06;;;31.03;45.29
43741;BME280;29352;48.708;9.290;2023-08-20T11:26:42;98254.44;;;29.14;47.41
43741;BME280;29352;48.708;9.290;2023-08-20T11:29:15;98255.13;;;30.03;47.62
43741;BME280;29352;48.708;9.290;2023-08-20T11:31:47;98242.59;;;30.72;46.08
43741;BME280;29352;48.708;9.290;2023-08-20T11:34:13;98247.78;;;28.94;47.50
43741;BME280;29352;48.708;9.290;2023-08-20T11:36:39;98247.81;;;28.76;48.35
43741;BME280;29352;48.708;9.290;2023-08-20T11:39:07;98245.88;;;29.87;47.65
43741;BME280;29352;48.708;9.290;2023-08-20T11:41:36;98236.34;;;30.05;47.39
43741;BME280;29352;48.708;9.290;2023-08-20T11:44:03;98238.19;;;30.13;48.63
43741;BME280;29352;48.708;9.290;2023-08-20T11:46:29;98238.88;;;30.56;48.36
43741;BME280;29352;48.708;9.290;2023-08-20T11:49:06;98244.88;;;30.25;48.34
43741;BME280;29352;48.708;9.290;2023-08-20T11:51:39;98240.81;;;30.43;47.82
43741;BME280;29352;48.708;9.290;2023-08-20T11:54:07;98240.28;;;30.16;47.71
43741;BME280;29352;48.708;9.290;2023-08-20T11:56:51;98238.19;;;30.13;47.67
43741;BME280;29352;48.708;9.290;2023-08-20T11:59:19;98234.72;;;29.41;48.19
43741;BME280;29352;48.708;9.290;2023-08-20T12:01:54;98243.94;;;29.16;48.67
43741;BME280;29352;48.708;9.290;2023-08-20T12:04:25;98231.03;;;30.00;49.13
43741;BME280;29352;48.708;9.290;2023-08-20T12:07:20;98229.31;;;29.96;49.12
43741;BME280;29352;48.708;9.290;2023-08-20T12:09:56;98234.72;;;30.37;47.40
43741;BME280;29352;48.708;9.290;2023-08-20T12:12:22;98233.94;;;29.83;47.61
43741;BME280;29352;48.708;9.290;2023-08-20T12:14:48;98235.81;;;29.19;47.77
43741;BME280;29352;48.708;9.290;2023-08-20T12:17:20;98224.84;;;30.03;47.15
43741;BME280;29352;48.708;9.290;2023-08-20T12:19:46;98227.72;;;30.07;48.24
43741;BME280;29352;48.708;9.290;2023-08-20T12:22:11;98223.00;;;29.95;47.24
43741;BME280;29352;48.708;9.290;2023-08-20T12:24:38;98223.97;;;30.11;48.83
43741;BME280;29352;48.708;9.290;2023-08-20T12:27:03;98219.31;;;30.57;48.27
43741;BME280;29352;48.708;9.290;2023-08-20T12:29:29;98221.22;;;29.78;47.07
43741;BME280;29352;48.708;9.290;2023-08-20T12:31:55;98214.19;;;30.23;47.78
43741;BME280;29352;48.708;9.290;2023-08-20T12:34:20;98204.69;;;30.32;48.39
43741;BME280;29352;48.708;9.290;2023-08-20T12:36:50;98214.84;;;30.20;47.48
43741;BME280;29352;48.708;9.290;2023-08-20T12:39:16;98210.66;;;30.01;46.33
43741;BME280;29352;48.708;9.290;2023-08-20T12:41:41;98205.72;;;29.32;47.39
43741;BME280;29352;48.708;9.290;2023-08-20T12:44:08;98204.72;;;29.57;46.74
43741;BME280;29352;48.708;9.290;2023-08-20T12:46:33;98203.38;;;29.13;49.20
43741;BME280;29352;48.708;9.290;2023-08-20T12:48:59;98205.91;;;29.47;49.10
43741;BME280;29352;48.708;9.290;2023-08-20T12:51:24;98196.38;;;29.45;48.21
43741;BME280;29352;48.708;9.290;2023-08-20T12:53:51;98199.41;;;29.52;47.85
43741;BME280;29352;48.708;9.290;2023-08-20T12:56:16;98195.56;;;29.65;47.40
43741;BME280;29352;48.708;9.290;2023-08-20T12:58:42;98195.28;;;30.00;48.45
43741;BME280;29352;48.708;9.290;2023-08-20T13:01:07;98192.44;;;30.09;47.73
43741;BME280;29352;48.708;9.290;2023-08-20T13:03:33;98191.16;;;29.73;49.08
43741;BME280;29352;48.708;9.290;2023-08-20T13:05:59;98188.09;;;29.54;49.86
43741;BME280;29352;48.708;9.290;2023-08-20T13:08:25;98187.66;;;29.85;47.59
43741;BME280;29352;48.708;9.290;2023-08-20T13:10:56;98187.59;;;29.52;46.41
43741;BME280;29352;48.708;9.290;2023-08-20T13:13:24;98188.84;;;29.96;46.36
43741;BME280;29352;48.708;9.290;2023-08-20T13:15:53;98184.84;;;29.52;48.02